Time;durP1;ratioP1;P1;durP2;ratioP2;P2;SDS_P1;SDS_P2;PMS_P1;PMS_P2;Temp;Humidity;BMP_temperature;BMP_pressure;BME280_temperature;BME280_humidity;BME280_pressure;Samples;Min_cycle;Max_cycle;Signal;HPM_P1;HPM_P2
2022/08/01 00:00:37;;;;;;;2.93;1.53;;;18.80;99.90;;;;;;6100412;23;20188;-86
2022/08/01 00:03:03;;;;;;;2.53;1.83;;;18.70;99.90;;;;;;6101492;23;20164;-86
2022/08/01 00:05:29;;;;;;;2.87;1.67;;;18.70;99.90;;;;;;6100581;23;20203;-86
2022/08/01 00:07:55;;;;;;;2.27;1.37;;;18.70;99.90;;;;;;6076485;23;20192;-86
2022/08/01 00:10:21;;;;;;;2.43;1.97;;;18.60;99.90;;;;;;6077112;23;20196;-86
2022/08/01 00:12:47;;;;;;;2.03;1.67;;;18.60;99.90;;;;;;6100725;23;20196;-86
2022/08/01 00:15:15;;;;;;;2.10;1.53;;;18.70;99.90;;;;;;6076927;23;20539;-86
2022/08/01 00:17:41;;;;;;;2.63;1.07;;;18.70;99.90;;;;;;6127129;23;20163;-86
2022/08/01 00:20:10;;;;;;;1.33;1.03;;;18.60;99.90;;;;;;6124584;23;20208;-86
2022/08/01 00:22:35;;;;;;;1.27;1.07;;;18.60;99.90;;;;;;6126200;23;20220;-86
2022/08/01 00:25:02;;;;;;;2.57;1.30;;;18.60;99.90;;;;;;6125016;23;20207;-86
2022/08/01 00:27:27;;;;;;;2.00;0.80;;;18.50;99.90;;;;;;6100990;23;20199;-86
2022/08/01 00:29:53;;;;;;;1.80;1.40;;;18.60;99.90;;;;;;6077007;23;20157;-86
2022/08/01 00:32:19;;;;;;;1.00;0.87;;;18.60;99.90;;;;;;6100514;23;20195;-86
2022/08/01 00:34:45;;;;;;;1.33;1.00;;;18.60;99.90;;;;;;6124829;23;20557;-86
2022/08/01 00:37:11;;;;;;;3.60;1.30;;;18.60;99.90;;;;;;6126133;23;20192;-86
2022/08/01 00:39:36;;;;;;;1.87;1.40;;;18.50;99.90;;;;;;6100222;23;20206;-86
2022/08/01 00:42:07;;;;;;;2.57;1.07;;;18.50;99.90;;;;;;6100914;23;20235;-86
2022/08/01 00:44:33;;;;;;;3.60;1.20;;;18.60;99.90;;;;;;6125227;23;20188;-88
2022/08/01 00:46:59;;;;;;;3.97;0.90;;;18.50;99.90;;;;;;6076275;23;20288;-86
2022/08/01 00:49:25;;;;;;;1.60;1.13;;;18.60;99.90;;;;;;6076367;23;20227;-87
2022/08/01 00:51:51;;;;;;;3.17;1.30;;;18.50;99.90;;;;;;6023770;23;20208;-86
2022/08/01 00:54:16;;;;;;;1.43;0.90;;;18.50;99.90;;;;;;6047799;23;20173;-86
2022/08/01 00:56:43;;;;;;;3.43;1.47;;;18.50;99.90;;;;;;6048238;23;20578;-86
2022/08/01 00:59:10;;;;;;;1.23;1.13;;;18.50;99.90;;;;;;6023693;23;20228;-86
2022/08/01 01:01:36;;;;;;;1.83;1.07;;;18.50;99.90;;;;;;6047883;23;20232;-86
2022/08/01 01:04:02;;;;;;;3.43;1.90;;;18.60;99.90;;;;;;6047435;23;20197;-86
2022/08/01 01:06:48;;;;;;;3.27;1.50;;;18.50;99.90;;;;;;6071471;23;20548;-87
2022/08/01 01:09:22;;;;;;;5.50;1.40;;;18.50;99.90;;;;;;6071545;23;20523;-87
2022/08/01 01:12:09;;;;;;;3.43;1.33;;;18.40;99.90;;;;;;6072060;23;20590;-87
2022/08/01 01:15:00;;;;;;;5.00;1.60;;;18.40;99.90;;;;;;6071300;23;20188;-87
2022/08/01 01:17:36;;;;;;;2.80;1.70;;;18.40;99.90;;;;;;6071053;23;20209;-87
2022/08/01 01:20:05;;;;;;;3.80;1.90;;;18.40;99.90;;;;;;6070925;23;20211;-87
2022/08/01 01:22:53;;;;;;;2.80;2.00;;;18.30;99.90;;;;;;6071205;23;20204;-87
2022/08/01 01:25:34;;;;;;;7.73;1.50;;;18.30;99.90;;;;;;6071369;23;20595;-86
2022/08/01 01:28:20;;;;;;;3.33;1.33;;;18.20;99.90;;;;;;6071124;23;20204;-86
2022/08/01 01:30:51;;;;;;;5.27;1.43;;;18.20;99.90;;;;;;6070773;23;20244;-86
2022/08/01 01:33:20;;;;;;;6.43;2.67;;;18.30;99.90;;;;;;6071017;23;20145;-86
2022/08/01 01:35:51;;;;;;;6.03;2.77;;;18.20;99.90;;;;;;6071862;23;20159;-86
2022/08/01 01:38:20;;;;;;;1.70;1.40;;;18.20;99.90;;;;;;6070782;23;20208;-86
2022/08/01 01:40:48;;;;;;;2.67;1.20;;;18.20;99.90;;;;;;6070760;23;20198;-86
2022/08/01 01:43:16;;;;;;;3.00;1.40;;;18.20;99.90;;;;;;6096349;23;20201;-86
2022/08/01 01:45:43;;;;;;;2.27;1.23;;;18.20;99.90;;;;;;6023727;23;20205;-86
2022/08/01 01:48:12;;;;;;;3.60;1.90;;;18.20;99.90;;;;;;6071205;23;20597;-85
2022/08/01 01:50:39;;;;;;;3.70;2.70;;;18.10;99.90;;;;;;6072620;23;20238;-86
2022/08/01 01:53:06;;;;;;;5.30;1.33;;;18.20;99.90;;;;;;6099705;23;20326;-86
2022/08/01 01:55:34;;;;;;;2.70;2.03;;;18.10;99.90;;;;;;6099822;23;20574;-86
2022/08/01 01:58:00;;;;;;;7.27;1.97;;;18.10;99.90;;;;;;6100280;23;21061;-86
2022/08/01 02:00:28;;;;;;;3.80;1.87;;;18.10;99.90;;;;;;6076212;23;20204;-86
2022/08/01 02:02:56;;;;;;;2.27;1.73;;;18.10;99.90;;;;;;6100428;23;20651;-86
2022/08/01 02:05:24;;;;;;;4.13;1.33;;;18.10;99.90;;;;;;6124073;23;20680;-85
2022/08/01 02:07:52;;;;;;;5.80;1.53;;;18.10;99.90;;;;;;6099768;23;20206;-86
2022/08/01 02:10:19;;;;;;;6.20;1.67;;;18.10;99.90;;;;;;6100275;23;20505;-86
2022/08/01 02:12:48;;;;;;;2.53;1.77;;;18.00;99.90;;;;;;6099789;23;20200;-86
2022/08/01 02:15:15;;;;;;;1.60;1.17;;;18.00;99.90;;;;;;6099978;23;20242;-86
2022/08/01 02:17:44;;;;;;;1.77;1.37;;;18.00;99.90;;;;;;6100392;23;20164;-86
2022/08/01 02:20:11;;;;;;;5.97;1.87;;;18.00;99.90;;;;;;6123907;23;20214;-86
2022/08/01 02:22:42;;;;;;;7.23;1.20;;;18.00;99.90;;;;;;6124265;23;20278;-86
2022/08/01 02:25:17;;;;;;;3.63;1.67;;;18.00;99.90;;;;;;6124402;23;20220;-86
2022/08/01 02:27:53;;;;;;;8.13;1.67;;;18.00;99.90;;;;;;6125005;23;20199;-87
2022/08/01 02:30:20;;;;;;;14.63;2.03;;;17.90;99.90;;;;;;6126022;23;20140;-86
2022/08/01 02:32:57;;;;;;;3.27;1.77;;;17.90;99.90;;;;;;6102499;23;20239;-86
2022/08/01 02:35:27;;;;;;;6.43;1.40;;;17.90;99.90;;;;;;6126377;23;20226;-86
2022/08/01 02:37:55;;;;;;;3.93;1.40;;;17.90;99.90;;;;;;6101148;23;20250;-86
2022/08/01 02:40:21;;;;;;;6.13;2.00;;;17.90;99.90;;;;;;6127082;23;20712;-86
2022/08/01 02:42:52;;;;;;;11.63;2.33;;;17.80;99.90;;;;;;6077484;23;20263;-87
2022/08/01 02:45:20;;;;;;;5.20;1.63;;;17.80;99.90;;;;;;6126168;23;20160;-87
2022/08/01 02:47:49;;;;;;;4.20;2.00;;;17.90;99.90;;;;;;6126209;23;20156;-87
2022/08/01 02:50:17;;;;;;;3.40;1.80;;;17.90;99.90;;;;;;6125609;23;20231;-86
2022/08/01 02:52:46;;;;;;;3.73;1.43;;;17.90;99.90;;;;;;6125667;23;20200;-87
2022/08/01 02:55:12;;;;;;;2.70;1.37;;;17.90;99.90;;;;;;6125311;23;20204;-87
2022/08/01 02:57:40;;;;;;;4.90;1.50;;;17.90;99.90;;;;;;6101363;23;20196;-86
2022/08/01 03:00:06;;;;;;;4.20;1.30;;;17.80;99.90;;;;;;6078355;23;20184;-86
2022/08/01 03:02:35;;;;;;;2.27;1.63;;;17.80;99.90;;;;;;6101680;23;20187;-86
2022/08/01 03:05:01;;;;;;;2.47;1.10;;;17.80;99.90;;;;;;6125520;23;20200;-86
2022/08/01 03:07:29;;;;;;;5.57;1.53;;;17.70;99.90;;;;;;6101440;23;20251;-85
2022/08/01 03:09:57;;;;;;;3.93;1.30;;;17.70;99.90;;;;;;6101116;23;20196;-86
2022/08/01 03:12:27;;;;;;;5.10;1.80;;;17.70;99.90;;;;;;6101104;23;20164;-86
2022/08/01 03:14:56;;;;;;;4.73;1.43;;;17.60;99.90;;;;;;6126352;23;20199;-86
2022/08/01 03:17:24;;;;;;;6.07;1.20;;;17.60;99.90;;;;;;6125472;23;20693;-87
2022/08/01 03:19:52;;;;;;;1.87;1.60;;;17.50;99.90;;;;;;6125204;23;20215;-86
2022/08/01 03:22:21;;;;;;;3.70;1.53;;;17.50;99.90;;;;;;6125648;23;20222;-86
2022/08/01 03:24:51;;;;;;;1.57;1.00;;;17.50;99.90;;;;;;6125180;23;20200;-87
2022/08/01 03:27:22;;;;;;;7.07;1.53;;;17.40;99.90;;;;;;6125654;23;20148;-86
2022/08/01 03:29:49;;;;;;;4.47;1.37;;;17.40;99.90;;;;;;6125661;23;20140;-87
2022/08/01 03:32:16;;;;;;;4.60;1.20;;;17.40;99.90;;;;;;6126746;23;20199;-88
2022/08/01 03:34:42;;;;;;;5.90;1.57;;;17.40;99.90;;;;;;6127045;23;20261;-87
2022/08/01 03:37:19;;;;;;;3.23;1.33;;;17.40;99.90;;;;;;6125544;23;20199;-86
2022/08/01 03:39:54;;;;;;;7.83;1.23;;;17.30;99.90;;;;;;6124790;23;20536;-86
2022/08/01 03:42:24;;;;;;;2.57;1.60;;;17.30;99.90;;;;;;6125668;23;20235;-88
2022/08/01 03:44:57;;;;;;;3.00;1.43;;;17.30;99.90;;;;;;6126089;23;20558;-87
2022/08/01 03:47:35;;;;;;;3.13;0.90;;;17.30;99.90;;;;;;6125199;23;20200;-86
2022/08/01 03:50:05;;;;;;;1.20;0.93;;;17.30;99.90;;;;;;6124795;23;20239;-87
2022/08/01 03:52:32;;;;;;;2.30;1.23;;;17.30;99.90;;;;;;6125183;23;20287;-86
2022/08/01 03:55:06;;;;;;;4.97;1.50;;;17.30;99.90;;;;;;6100589;23;20200;-87
2022/08/01 03:57:33;;;;;;;4.60;1.20;;;17.20;99.90;;;;;;6101328;23;20502;-86
2022/08/01 04:00:00;;;;;;;2.17;1.27;;;17.20;99.90;;;;;;6127010;23;20187;-87
2022/08/01 04:02:29;;;;;;;4.70;1.37;;;17.20;99.90;;;;;;6100677;23;20199;-87
2022/08/01 04:04:55;;;;;;;9.13;1.43;;;17.20;99.90;;;;;;6076825;23;20192;-86
2022/08/01 04:07:32;;;;;;;7.40;1.70;;;17.20;99.90;;;;;;6100656;23;20522;-86
2022/08/01 04:09:58;;;;;;;2.63;1.50;;;17.20;99.90;;;;;;6124889;23;20243;-86
2022/08/01 04:12:24;;;;;;;13.80;1.93;;;17.20;99.90;;;;;;6100991;23;20160;-86
2022/08/01 04:14:50;;;;;;;3.10;1.30;;;17.20;99.90;;;;;;6101097;23;20244;-88
2022/08/01 04:17:17;;;;;;;6.47;1.57;;;17.20;99.90;;;;;;6100727;23;20195;-86
2022/08/01 04:19:43;;;;;;;8.70;2.10;;;17.20;99.90;;;;;;6100838;23;20290;-86
2022/08/01 04:22:14;;;;;;;5.33;1.53;;;17.20;99.90;;;;;;6124848;23;20258;-86
2022/08/01 04:24:42;;;;;;;4.13;1.17;;;17.20;99.90;;;;;;6124976;23;20231;-86
2022/08/01 04:27:15;;;;;;;6.93;1.60;;;17.20;99.90;;;;;;6100818;23;20191;-86
2022/08/01 04:29:42;;;;;;;10.67;1.57;;;17.20;99.90;;;;;;6125962;23;20215;-87
2022/08/01 04:32:12;;;;;;;7.63;2.10;;;17.20;99.90;;;;;;6124526;23;20195;-86
2022/08/01 04:34:40;;;;;;;2.37;1.17;;;17.20;99.90;;;;;;6100702;23;20512;-86
2022/08/01 04:37:09;;;;;;;5.67;1.67;;;17.20;99.90;;;;;;6100550;23;20251;-87
2022/08/01 04:39:38;;;;;;;4.80;1.23;;;17.20;99.90;;;;;;6125243;23;20687;-86
2022/08/01 04:42:05;;;;;;;6.87;2.10;;;17.20;99.90;;;;;;6125531;23;20487;-86
2022/08/01 04:44:32;;;;;;;5.30;1.73;;;17.10;99.90;;;;;;6124870;23;20652;-87
2022/08/01 04:47:03;;;;;;;2.93;1.60;;;17.10;99.90;;;;;;6076954;23;20533;-87
2022/08/01 04:49:31;;;;;;;3.60;1.30;;;17.10;99.90;;;;;;6124992;23;20192;-87
2022/08/01 04:51:57;;;;;;;4.63;1.90;;;17.10;99.90;;;;;;6071717;23;20263;-87
2022/08/01 04:54:33;;;;;;;2.47;1.30;;;17.20;99.90;;;;;;6047872;23;20611;-86
2022/08/01 04:57:00;;;;;;;3.20;1.30;;;17.20;99.90;;;;;;6071888;23;20156;-87
2022/08/01 04:59:39;;;;;;;7.83;1.87;;;17.20;99.90;;;;;;6071699;23;20205;-86
2022/08/01 05:02:06;;;;;;;5.77;1.47;;;17.20;99.90;;;;;;6071174;23;20196;-87
2022/08/01 05:04:33;;;;;;;5.40;2.27;;;17.20;99.90;;;;;;6047681;23;20203;-87
2022/08/01 05:06:59;;;;;;;6.77;1.73;;;17.20;99.90;;;;;;6071293;23;20192;-87
2022/08/01 05:09:25;;;;;;;4.23;1.50;;;17.20;99.90;;;;;;6024468;23;20165;-87
2022/08/01 05:11:51;;;;;;;8.83;1.93;;;17.20;99.90;;;;;;6024917;23;20646;-87
2022/08/01 05:14:17;;;;;;;4.57;1.00;;;17.10;99.90;;;;;;6047753;23;20219;-87
2022/08/01 05:16:42;;;;;;;1.93;1.43;;;17.10;99.90;;;;;;6023576;23;20208;-87
2022/08/01 05:19:08;;;;;;;4.60;1.80;;;17.20;99.90;;;;;;6023956;23;20267;-86
2022/08/01 05:21:35;;;;;;;3.30;1.63;;;17.10;99.90;;;;;;6047841;23;20203;-87
2022/08/01 05:24:02;;;;;;;8.37;1.53;;;17.20;99.90;;;;;;6048255;23;20169;-87
2022/08/01 05:26:28;;;;;;;1.73;0.93;;;17.30;99.90;;;;;;6047225;23;20200;-87
2022/08/01 05:28:53;;;;;;;10.10;1.80;;;17.30;99.90;;;;;;6023702;23;20272;-87
2022/08/01 05:31:19;;;;;;;5.70;1.90;;;17.30;99.90;;;;;;6047615;23;20272;-87
2022/08/01 05:33:45;;;;;;;2.70;1.37;;;17.20;99.90;;;;;;6047317;23;20630;-87
2022/08/01 05:36:10;;;;;;;4.20;1.60;;;17.20;99.90;;;;;;6071123;23;20165;-87
2022/08/01 05:38:36;;;;;;;2.17;1.03;;;17.20;99.90;;;;;;6047762;23;20216;-86
2022/08/01 05:41:02;;;;;;;2.37;1.53;;;17.20;99.90;;;;;;6071340;23;20196;-87
2022/08/01 05:43:28;;;;;;;3.77;1.40;;;17.30;99.90;;;;;;6047352;23;20200;-87
2022/08/01 05:45:53;;;;;;;6.90;1.73;;;17.30;99.90;;;;;;6023653;23;20247;-86
2022/08/01 05:48:19;;;;;;;1.00;0.93;;;17.40;99.90;;;;;;6047508;23;20243;-87
2022/08/01 05:50:47;;;;;;;5.30;1.57;;;17.40;99.90;;;;;;6051519;23;20289;-87
2022/08/01 05:53:13;;;;;;;10.50;1.30;;;17.60;99.90;;;;;;6076881;23;20200;-87
2022/08/01 05:55:39;;;;;;;4.80;2.03;;;17.60;99.90;;;;;;6100143;23;20584;-87
2022/08/01 05:58:07;;;;;;;4.07;1.27;;;17.60;99.90;;;;;;6124417;23;20200;-87
2022/08/01 06:00:33;;;;;;;2.87;0.97;;;17.60;99.90;;;;;;6077371;23;20249;-87
2022/08/01 06:02:59;;;;;;;4.73;1.20;;;17.70;99.90;;;;;;6126579;23;20545;-87
2022/08/01 06:05:25;;;;;;;2.50;1.13;;;18.10;99.90;;;;;;6101817;23;20279;-87
2022/08/01 06:07:50;;;;;;;6.40;1.33;;;18.60;99.90;;;;;;6127589;23;20203;-87
2022/08/01 06:10:17;;;;;;;1.97;1.20;;;19.10;99.90;;;;;;6077699;23;20191;-87
2022/08/01 06:12:43;;;;;;;2.37;1.37;;;19.10;99.90;;;;;;6126348;23;20536;-85
2022/08/01 06:15:09;;;;;;;6.87;1.63;;;19.90;99.90;;;;;;6101794;23;20194;-85
2022/08/01 06:17:35;;;;;;;3.70;1.47;;;20.40;99.90;;;;;;6102675;23;20215;-86
2022/08/01 06:20:09;;;;;;;3.97;1.03;;;21.30;99.90;;;;;;6101893;23;20211;-87
2022/08/01 06:23:43;;;;;;;1.57;0.77;;;21.20;99.90;;;;;;6050583;23;20592;-86
2022/08/01 06:26:10;;;;;;;1.70;1.10;;;20.60;99.90;;;;;;6042194;23;20208;-87
2022/08/01 06:28:36;;;;;;;3.93;1.27;;;21.70;99.90;;;;;;6118970;23;20200;-86
2022/08/01 06:31:02;;;;;;;6.50;1.30;;;22.20;99.90;;;;;;6075460;23;20200;-86
2022/08/01 06:33:28;;;;;;;2.10;1.47;;;22.20;99.90;;;;;;6100641;23;20245;-85
2022/08/01 06:35:54;;;;;;;4.85;1.17;;;22.60;99.90;;;;;;6077113;23;20578;-88
2022/08/01 06:38:19;;;;;;;6.28;1.85;;;23.70;99.90;;;;;;6076623;23;20224;-87
2022/08/01 06:40:45;;;;;;;5.85;1.13;;;23.90;99.90;;;;;;6076730;23;20200;-88
2022/08/01 06:43:11;;;;;;;7.05;1.13;;;23.70;99.90;;;;;;6125013;23;20772;-88
2022/08/01 06:45:38;;;;;;;1.77;1.30;;;24.10;99.90;;;;;;6076803;23;20275;-90
2022/08/01 06:48:04;;;;;;;3.47;1.02;;;23.40;99.90;;;;;;6077347;23;20161;-88
2022/08/01 06:50:32;;;;;;;4.80;1.08;;;24.10;99.90;;;;;;6076935;23;20275;-88
2022/08/01 06:52:58;;;;;;;2.92;1.15;;;25.30;99.90;;;;;;6100814;23;20672;-89
2022/08/01 06:55:24;;;;;;;3.10;1.48;;;24.40;99.90;;;;;;6076435;23;20267;-89
2022/08/01 06:57:51;;;;;;;2.70;1.10;;;23.70;99.90;;;;;;6076708;23;20665;-89
2022/08/01 07:00:22;;;;;;;4.43;1.00;;;22.80;99.90;;;;;;6115749;23;20266;-89
2022/08/01 07:02:49;;;;;;;5.63;1.25;;;22.10;99.90;;;;;;6126828;23;20235;-88
2022/08/01 07:05:15;;;;;;;3.03;0.73;;;22.30;99.90;;;;;;6101444;23;20203;-85
2022/08/01 07:07:40;;;;;;;0.70;0.70;;;22.90;99.90;;;;;;6126320;23;20196;-88
2022/08/01 07:10:08;;;;;;;4.18;1.40;;;23.50;99.90;;;;;;6101828;23;20203;-89
2022/08/01 07:12:36;;;;;;;6.60;1.33;;;22.80;99.90;;;;;;6078764;23;20187;-90
2022/08/01 07:15:06;;;;;;;2.60;1.20;;;23.00;99.90;;;;;;6103328;23;20170;-90
2022/08/01 07:17:32;;;;;;;1.90;0.90;;;24.00;99.90;;;;;;6126630;23;20184;-90
2022/08/01 07:19:57;;;;;;;2.90;0.90;;;24.10;99.90;;;;;;6078422;23;20207;-90
2022/08/01 07:22:23;;;;;;;3.80;1.23;;;22.60;99.90;;;;;;6077518;23;20215;-89
2022/08/01 07:24:49;;;;;;;3.42;1.02;;;22.40;99.90;;;;;;6126236;23;20258;-91
2022/08/01 07:27:14;;;;;;;2.58;0.95;;;22.50;99.90;;;;;;6077993;23;20157;-91
2022/08/01 07:29:40;;;;;;;2.50;1.05;;;22.10;99.90;;;;;;6078403;23;20251;-89
2022/08/01 07:32:06;;;;;;;1.77;1.00;;;23.00;99.90;;;;;;6077734;23;20200;-90
2022/08/01 07:34:32;;;;;;;4.40;1.10;;;22.90;99.90;;;;;;6078075;23;20203;-90
2022/08/01 07:36:57;;;;;;;2.58;1.00;;;23.70;99.90;;;;;;6077568;23;20270;-90
2022/08/01 07:39:23;;;;;;;0.98;0.82;;;24.30;99.90;;;;;;6077870;23;20223;-90
2022/08/01 07:41:49;;;;;;;1.70;0.88;;;24.40;99.90;;;;;;6126777;23;20164;-88
2022/08/01 07:44:15;;;;;;;6.18;1.00;;;22.90;99.90;;;;;;6077636;23;20192;-88
2022/08/01 07:46:40;;;;;;;5.85;1.52;;;23.70;99.90;;;;;;6077893;23;20227;-88
2022/08/01 07:49:06;;;;;;;4.90;1.30;;;24.70;99.90;;;;;;6077614;23;20202;-88
2022/08/01 07:51:32;;;;;;;3.33;1.23;;;22.50;99.90;;;;;;6077726;23;20266;-91
2022/08/01 07:53:57;;;;;;;2.95;0.90;;;21.70;99.90;;;;;;6078777;23;20168;-92
2022/08/01 07:56:25;;;;;;;2.47;1.17;;;22.20;99.90;;;;;;6077657;23;20204;-91
2022/08/01 07:58:51;;;;;;;2.05;1.05;;;22.00;99.90;;;;;;6078381;23;20268;-91
2022/08/01 08:01:17;;;;;;;1.17;0.93;;;21.90;99.90;;;;;;6078191;23;20282;-91
2022/08/01 08:03:43;;;;;;;3.35;1.15;;;20.90;99.90;;;;;;6101684;23;20199;-90
2022/08/01 08:06:09;;;;;;;2.92;0.90;;;22.60;99.90;;;;;;6077751;23;20171;-91
2022/08/01 08:08:34;;;;;;;6.55;1.15;;;24.00;99.90;;;;;;6078521;23;20265;-91
2022/08/01 08:11:01;;;;;;;4.50;1.55;;;25.10;99.90;;;;;;6101860;23;20263;-91
2022/08/01 08:13:27;;;;;;;3.22;1.20;;;25.10;99.90;;;;;;6101893;23;20204;-91
2022/08/01 08:15:53;;;;;;;3.67;1.50;;;24.60;99.90;;;;;;6077858;23;20206;-91
2022/08/01 08:18:18;;;;;;;8.48;1.75;;;27.10;99.90;;;;;;6101603;23;20164;-90
2022/08/01 08:20:44;;;;;;;2.72;0.90;;;27.60;99.90;;;;;;6078522;23;20163;-89
2022/08/01 08:25:57;;;;;;;3.47;1.05;;;25.30;99.90;;;;;;6096072;23;20299;-88
2022/08/01 08:28:23;;;;;;;2.25;1.23;;;26.60;99.90;;;;;;6101224;23;20643;-91
2022/08/01 08:30:48;;;;;;;2.05;1.20;;;22.90;99.90;;;;;;6077457;23;20203;-88
2022/08/01 08:33:14;;;;;;;4.43;1.15;;;22.00;99.90;;;;;;6101428;23;20160;-88
2022/08/01 08:35:41;;;;;;;1.23;0.85;;;22.00;99.90;;;;;;6102400;23;20296;-91
2022/08/01 08:38:07;;;;;;;1.13;0.73;;;22.40;99.90;;;;;;6079687;23;20191;-88
2022/08/01 08:40:36;;;;;;;5.20;1.00;;;22.50;99.90;;;;;;6128860;23;20208;-93
2022/08/01 08:43:04;;;;;;;2.72;1.30;;;24.10;99.90;;;;;;6103875;23;20200;-94
2022/08/01 08:45:31;;;;;;;1.60;1.00;;;25.60;99.90;;;;;;6102586;23;20262;-91
2022/08/01 08:47:57;;;;;;;2.15;0.90;;;26.00;99.90;;;;;;6078230;23;20243;-91
2022/08/01 08:50:25;;;;;;;1.85;0.70;;;25.10;99.90;;;;;;6125992;23;20347;-93
2022/08/01 08:52:54;;;;;;;0.55;0.55;;;27.00;99.90;;;;;;6128039;23;20279;-93
2022/08/01 08:55:20;;;;;;;1.77;0.70;;;26.20;99.90;;;;;;6128281;23;20267;-93
2022/08/01 08:57:47;;;;;;;2.40;1.08;;;24.70;99.90;;;;;;6127376;23;20196;-91
2022/08/01 09:00:13;;;;;;;4.28;1.10;;;23.90;99.90;;;;;;6101955;23;20184;-89
2022/08/01 09:02:43;;;;;;;1.67;1.17;;;24.50;99.90;;;;;;6102620;23;20156;-91
2022/08/01 09:05:10;;;;;;;3.60;0.70;;;24.20;99.90;;;;;;6078889;23;20192;-90
2022/08/01 09:07:36;;;;;;;5.25;0.95;;;22.90;99.90;;;;;;6104642;23;20192;-93
2022/08/01 09:10:04;;;;;;;1.10;0.70;;;22.80;99.90;;;;;;6105408;23;20650;-92
2022/08/01 09:12:29;;;;;;;2.30;1.38;;;21.70;99.90;;;;;;6106076;23;20191;-92
2022/08/01 09:14:55;;;;;;;4.30;0.80;;;21.10;99.90;;;;;;6130608;23;20153;-92
2022/08/01 09:17:21;;;;;;;3.92;0.98;;;21.60;99.90;;;;;;6082203;23;20271;-91
2022/08/01 09:19:54;;;;;;;2.00;1.17;;;23.00;99.90;;;;;;6105669;23;20207;-92
2022/08/01 09:22:22;;;;;;;14.98;2.95;;;22.90;99.90;;;;;;6128676;23;20196;-94
2022/08/01 09:25:05;;;;;;;2.22;1.10;;;22.80;99.90;;;;;;6126908;23;20529;-92
2022/08/01 09:27:31;;;;;;;3.08;1.35;;;22.20;99.90;;;;;;6126507;23;20219;-93
2022/08/01 09:30:17;;;;;;;4.53;0.88;;;22.00;99.90;;;;;;6127757;23;20164;-92
2022/08/01 09:33:02;;;;;;;1.60;1.15;;;21.90;99.90;;;;;;6126789;23;20180;-92
2022/08/01 09:35:44;;;;;;;1.70;0.70;;;24.60;99.90;;;;;;6127125;23;20200;-92
2022/08/01 09:38:14;;;;;;;6.90;1.33;;;23.50;99.90;;;;;;6127356;23;20203;-92
2022/08/01 09:40:57;;;;;;;2.47;1.00;;;23.10;99.90;;;;;;6128000;23;20200;-91
2022/08/01 09:43:25;;;;;;;1.60;0.60;;;24.40;99.90;;;;;;6103615;23;20195;-91
2022/08/01 09:45:51;;;;;;;3.63;0.98;;;23.80;99.90;;;;;;6127026;23;20652;-91
2022/08/01 09:48:18;;;;;;;1.75;0.85;;;23.60;99.90;;;;;;6126941;23;20195;-91
2022/08/01 09:50:46;;;;;;;1.48;0.88;;;25.00;99.90;;;;;;6128335;23;20196;-93
2022/08/01 09:53:13;;;;;;;2.30;0.85;;;27.10;99.90;;;;;;6126292;23;20195;-91
2022/08/01 09:55:39;;;;;;;1.77;0.88;;;26.20;99.90;;;;;;6105833;23;20200;-92
2022/08/01 09:58:06;;;;;;;1.33;0.93;;;27.50;99.90;;;;;;6103147;23;20192;-89
2022/08/01 10:00:34;;;;;;;1.65;0.70;;;28.90;99.90;;;;;;6127550;23;20199;-89
2022/08/01 10:03:22;;;;;;;3.50;0.82;;;25.40;99.90;;;;;;6127624;23;20167;-90
2022/08/01 10:05:48;;;;;;;2.35;1.02;;;25.10;99.90;;;;;;6128980;23;20228;-89
2022/08/01 10:08:14;;;;;;;4.80;0.90;;;26.50;99.90;;;;;;6104759;23;20199;-90
2022/08/01 10:10:39;;;;;;;1.15;0.80;;;27.00;99.90;;;;;;6130493;23;20274;-88
2022/08/01 10:13:07;;;;;;;2.00;0.88;;;25.20;99.90;;;;;;6081442;23;20574;-90
2022/08/01 10:15:34;;;;;;;1.08;0.93;;;24.30;99.90;;;;;;6128490;23;20203;-89
2022/08/01 10:18:02;;;;;;;2.95;1.05;;;23.40;99.90;;;;;;6104707;23;20605;-89
2022/08/01 10:20:31;;;;;;;2.80;0.75;;;23.40;99.90;;;;;;6105169;23;20207;-90
2022/08/01 10:23:00;;;;;;;1.63;0.63;;;24.30;99.90;;;;;;6125356;23;20196;-89
2022/08/01 10:25:31;;;;;;;0.73;0.70;;;23.40;99.90;;;;;;6126825;23;20192;-90
2022/08/01 10:27:59;;;;;;;4.00;0.73;;;23.60;99.90;;;;;;6126079;23;20649;-87
2022/08/01 10:30:25;;;;;;;0.70;0.68;;;25.60;99.90;;;;;;6101600;23;20196;-89
2022/08/01 10:32:54;;;;;;;3.85;1.08;;;25.20;99.90;;;;;;6101873;23;20169;-88
2022/08/01 10:35:21;;;;;;;1.25;1.00;;;26.80;99.90;;;;;;6102138;23;20202;-87
2022/08/01 10:37:47;;;;;;;6.10;1.42;;;25.30;99.90;;;;;;6125190;23;20210;-89
2022/08/01 10:40:13;;;;;;;1.85;1.10;;;22.80;99.90;;;;;;6102113;23;20236;-90
2022/08/01 10:42:44;;;;;;;2.75;0.80;;;22.70;99.90;;;;;;6102250;23;20562;-88
2022/08/01 10:45:15;;;;;;;0.90;0.68;;;21.50;99.90;;;;;;6126991;23;20570;-91
2022/08/01 10:48:09;;;;;;;3.08;1.20;;;21.80;99.90;;;;;;6127862;23;20228;-91
2022/08/01 10:50:41;;;;;;;3.05;0.73;;;22.60;99.90;;;;;;6127997;23;20216;-89
2022/08/01 10:53:19;;;;;;;2.22;0.68;;;21.80;99.90;;;;;;6127872;23;20192;-90
2022/08/01 10:56:00;;;;;;;2.08;0.98;;;22.40;99.90;;;;;;6128438;23;20203;-88
2022/08/01 10:58:36;;;;;;;2.15;0.70;;;24.50;99.90;;;;;;6126915;23;20247;-89
2022/08/01 11:01:24;;;;;;;2.72;0.95;;;25.30;99.90;;;;;;6127904;23;20323;-88
2022/08/01 11:03:59;;;;;;;2.30;0.65;;;25.20;99.90;;;;;;6102639;23;20657;-89
2022/08/01 11:06:34;;;;;;;1.30;0.80;;;23.70;99.90;;;;;;6127251;23;20159;-91
2022/08/01 11:09:15;;;;;;;1.73;0.60;;;22.00;99.90;;;;;;6127445;23;20238;-89
2022/08/01 11:12:09;;;;;;;2.10;0.70;;;22.10;99.90;;;;;;6127030;23;20176;-89
2022/08/01 11:14:57;;;;;;;2.22;1.20;;;22.70;99.90;;;;;;6126365;23;20188;-88
2022/08/01 11:17:50;;;;;;;3.67;0.80;;;22.60;99.90;;;;;;6126231;23;20207;-90
2022/08/01 11:20:30;;;;;;;3.20;0.85;;;22.00;99.90;;;;;;6088436;23;20207;-90
2022/08/01 11:23:03;;;;;;;3.20;0.80;;;22.00;99.90;;;;;;6128512;23;20200;-90
2022/08/01 11:25:45;;;;;;;1.48;1.08;;;22.40;99.90;;;;;;6126804;23;20593;-86
2022/08/01 11:28:17;;;;;;;3.08;1.13;;;21.70;99.90;;;;;;6126135;23;20210;-89
2022/08/01 11:30:54;;;;;;;1.58;1.00;;;22.10;99.90;;;;;;6126691;23;20208;-89
2022/08/01 11:33:44;;;;;;;0.70;0.70;;;22.90;99.90;;;;;;6125953;23;20176;-88
2022/08/01 11:36:12;;;;;;;5.57;0.88;;;22.00;99.90;;;;;;6125953;23;20168;-88
2022/08/01 11:38:43;;;;;;;4.97;1.00;;;22.10;99.90;;;;;;6126981;23;20648;-88
2022/08/01 11:41:29;;;;;;;1.10;0.90;;;22.10;99.90;;;;;;6102791;23;20192;-89
2022/08/01 11:44:01;;;;;;;3.45;1.00;;;22.30;99.90;;;;;;6125998;23;20227;-88
2022/08/01 11:46:49;;;;;;;2.08;1.00;;;22.30;99.90;;;;;;6125736;23;20663;-88
2022/08/01 11:49:27;;;;;;;3.65;1.30;;;22.50;99.90;;;;;;6125963;23;20200;-88
2022/08/01 11:52:06;;;;;;;3.15;0.63;;;23.50;99.90;;;;;;6072908;23;20290;-88
2022/08/01 11:54:35;;;;;;;1.13;0.70;;;23.00;99.90;;;;;;6073463;23;20196;-90
2022/08/01 11:57:04;;;;;;;3.50;0.80;;;22.70;99.90;;;;;;6073535;23;20505;-84
2022/08/01 11:59:40;;;;;;;5.72;1.15;;;22.90;99.90;;;;;;6071475;23;20200;-84
2022/08/01 12:02:20;;;;;;;0.80;0.77;;;23.50;99.90;;;;;;6071973;23;20223;-85
2022/08/01 12:04:54;;;;;;;5.97;1.15;;;23.70;99.90;;;;;;6072316;23;20248;-86
2022/08/01 12:07:21;;;;;;;3.80;0.90;;;23.50;99.90;;;;;;6072252;23;20192;-89
2022/08/01 12:09:47;;;;;;;2.83;1.25;;;23.60;99.90;;;;;;6047960;23;20197;-83
2022/08/01 12:12:18;;;;;;;0.80;0.80;;;23.90;99.90;;;;;;6072179;23;20175;-92
2022/08/01 12:14:45;;;;;;;2.53;0.88;;;23.20;99.90;;;;;;6049553;23;20157;-89
2022/08/01 12:17:11;;;;;;;2.20;0.95;;;23.70;99.90;;;;;;6072766;23;20506;-88
2022/08/01 12:19:36;;;;;;;2.95;1.08;;;23.80;99.90;;;;;;6048521;23;20255;-92
2022/08/01 12:22:13;;;;;;;2.83;1.10;;;23.70;99.90;;;;;;6048727;23;20219;-90
2022/08/01 12:24:41;;;;;;;4.05;0.90;;;23.60;99.90;;;;;;6072327;23;20196;-89
2022/08/01 12:27:09;;;;;;;2.05;0.80;;;23.00;99.90;;;;;;6073204;23;20157;-87
2022/08/01 12:29:40;;;;;;;2.00;1.02;;;22.90;99.90;;;;;;6048969;23;20157;-87
2022/08/01 12:32:25;;;;;;;3.30;1.08;;;22.80;99.90;;;;;;6048642;23;20197;-89
2022/08/01 12:34:52;;;;;;;1.98;1.00;;;23.10;99.90;;;;;;6072313;23;20219;-89
2022/08/01 12:37:19;;;;;;;3.65;0.93;;;23.10;99.90;;;;;;6025329;23;20208;-87
2022/08/01 12:39:45;;;;;;;2.50;0.88;;;22.10;99.90;;;;;;6048130;23;20204;-90
2022/08/01 12:42:12;;;;;;;2.45;0.95;;;22.50;99.90;;;;;;6048865;23;20203;-88
2022/08/01 12:44:40;;;;;;;3.33;0.93;;;22.20;99.90;;;;;;6073004;23;20153;-87
2022/08/01 12:47:07;;;;;;;1.15;0.65;;;21.90;99.90;;;;;;6071596;23;20204;-87
2022/08/01 12:49:35;;;;;;;2.33;1.10;;;21.60;99.90;;;;;;6047808;23;20591;-87
2022/08/01 12:52:01;;;;;;;0.80;0.80;;;22.00;99.90;;;;;;6071219;23;20256;-87
2022/08/01 12:54:27;;;;;;;2.17;1.00;;;22.00;99.90;;;;;;6048080;23;20203;-86
2022/08/01 12:56:53;;;;;;;4.00;1.13;;;22.10;99.90;;;;;;6072155;23;20165;-86
2022/08/01 12:59:30;;;;;;;1.83;1.13;;;21.90;99.90;;;;;;6024202;23;20212;-87